Accueil
METAR-TAF:

METAR-TAF

Aéroports :

Aéroport de Val-d'Or

Val-d'Or, Québec, Canada

latitude: 48-04N, longitude: 077-47W, altitude: 337 m

Observation

Le bulletin a été fait il y a 59 minutes, à 06:00 UTC
Vent 10 kt de sud/sud-ouest avec des rafales jusqu'à 15 kt
Température -3°C
Humidité 68%
Pression 1018 hPa
Visibilité: 14.5 km
Ciel couvert à une hauteur de 8500 ft

METAR: CYVO 200600Z AUTO 20010G15KT 9SM OVC085 M03/M08 A3007 RMK SLP206

Heure: 02:59 (06:59 UTC)

Prévision

Le bulletin a été fait il y a 1 heure et 21 minutes, à 05:38 UTC
Prévision valable du 20 à 06 UTC au 20 à 18 UTC
Vent 8 kt de sud/sud-ouest
Visibilité: 10 km
Ciel couvert à une hauteur de 8000 ft
Evoluant progressivement
du 20 à 14 UTC au 20 à 16 UTC
Vent 10 kt de sud/sud-ouest avec des rafales jusqu'à 20 kt

TAF: CYVO 200538Z 2006/2018 20008KT P6SM OVC080 BECMG 2014/2016 21010G20KT RMK FCST BASED ON AUTO OBS. NXT FCST BY 201200Z

Observations et prévisions météorologiques de plus de 4000 aéroports (messages METAR et TAF).

Les stations disponibles sont représentées par des disques jaunes et rouges sur la carte.

Passer la souris dessus pour voir le nom de la station.

Cliquer dessus pour voir les observations et prévisions météorologiques.

Pour changer de carte: cliquez sur les boutons verts avec une croix noire pour zoomer, sur le bouton vert avec un tiret pour effectuer un zoom arrière, ou sur les flèches vertes pour les cartes adjacentes.


METAR-TAF: